Arivaca, AZ

9:50 PM MST on August 19, 2014 (GMT -0700)
Cerro Pelon | Change Station
CLOSE
Current Station
Personal Weather Station
Location: Tubac, AZ
Elevation: 3488 ft
Nearby Weather Stations
Active Advisory: Areal Flood Advisory Active Notice: Public Information Statement

Elev 3488 ft 31.60 °N, 111.07 °W | Updated 7 seconds ago

Scattered Clouds
Scattered Clouds
72.4 °F
Feels Like 74 °F
N
8.0
Wind Variable Wind from North
Gusts 16.0 mph

Today
High -- | Low -- °F
--% Chance of Precip.
Yesterday
High -- | Low -- °F
Precip. -- in
5:53 AM 7:04 PM
Waning Crescent, 24% visible
Pressure 29.87 in
Visibility 10.0 miles
Clouds Scattered Clouds 6500 ft
Heat Index 74 °F
Dew Point 64 °F
Humidity 74%
Rainfall 0.00 in
Snow Depth Not available.
UV 0 out of 12
Pollen 1.20 out of 12
Air Quality Not available.
Flu Activity Not available.
METAR KOLS 200354Z AUTO 00000KT 10SM SCT065 20/17 A3005 RMK AO2 SLP115 T02000167

More Conditions Fewer Conditions

Pressure 29.87 in
Visibility 10.0 miles
Clouds Scattered Clouds 6500 ft
Heat Index 74 °F
Dew Point 64 °F
Humidity 74%
Rainfall 0.00 in
Snow Depth Not available.
UV 0 out of 12
Pollen 1.20 out of 12
Air Quality Not available.
Flu Activity Not available.
METAR KOLS 200354Z AUTO 00000KT 10SM SCT065 20/17 A3005 RMK AO2 SLP115 T02000167

More Conditions Fewer Conditions

10-Day Weather Forecast

Almanac

Astronomy

Aug. 19, 2014 Rise Set
Actual Time 5:53 AM MST 7:04 PM MST
Civil Twilight 5:27 AM MST 7:29 PM MST
Nautical Twilight 4:57 AM MST 7:59 PM MST
Astronomical Twilight 4:26 AM MST 8:30 PM MST
Moon 12:54 AM MST (8/19) 2:57 PM MST (8/19)
Length of Visible Light 14h 01m
Length of Day
13h 11m
Tomorrow will be 1m 44s shorter.
Waning Crescent, 24% of the Moon is Illuminated
Aug 20
Waning Crescent
Aug 25
New
Sep 2
First Quarter
Sep 8
Full
Sep 15
Last Quarter

Yesterday's Extremes

State Highs State Lows

Community

WunderPhotos

Upload Photos

1,745,585 photos uploaded!

Nearby

Snow Depth

Station Depth Elevation
Workman Creek 1 in 6900 ft
Wildcat 0 in 7850 ft
Hannagan Meadows 0 in 9020 ft
Beaver Head 11 in 7990 ft
Heber 0 in 7640 ft

Earthquake Activity

City Distance Mag. Time & Date
No recent earthquake activity has been reported nearby.
Minimum magnitude displayed is 2.5.

Coastal Water Temperatures

Place Temperature
No Stations Reporting

Nearby Weather Stations